sensor_id;sensor_type;location;lat;lon;timestamp;temperature;humidity
3548;DHT22;1788;49.400;11.092;2023-06-26T00:02:03;21.70;50.80
3548;DHT22;1788;49.400;11.092;2023-06-26T00:04:30;21.60;50.70
3548;DHT22;1788;49.400;11.092;2023-06-26T00:06:57;21.60;51.00
3548;DHT22;1788;49.400;11.092;2023-06-26T00:09:24;21.60;51.00
3548;DHT22;1788;49.400;11.092;2023-06-26T00:11:50;21.50;51.00
3548;DHT22;1788;49.400;11.092;2023-06-26T00:14:17;21.50;51.00
3548;DHT22;1788;49.400;11.092;2023-06-26T00:16:43;21.50;51.20
3548;DHT22;1788;49.400;11.092;2023-06-26T00:19:10;21.50;51.20
3548;DHT22;1788;49.400;11.092;2023-06-26T00:21:37;21.40;51.20
3548;DHT22;1788;49.400;11.092;2023-06-26T00:24:03;21.40;51.30
3548;DHT22;1788;49.400;11.092;2023-06-26T00:26:30;21.30;51.30
3548;DHT22;1788;49.400;11.092;2023-06-26T00:28:57;21.30;51.30
3548;DHT22;1788;49.400;11.092;2023-06-26T00:31:23;21.30;51.50
3548;DHT22;1788;49.400;11.092;2023-06-26T00:33:51;21.20;51.50
3548;DHT22;1788;49.400;11.092;2023-06-26T00:36:17;21.20;51.50
3548;DHT22;1788;49.400;11.092;2023-06-26T00:38:45;21.10;51.60
3548;DHT22;1788;49.400;11.092;2023-06-26T00:41:11;21.10;51.60
3548;DHT22;1788;49.400;11.092;2023-06-26T00:43:39;21.00;51.20
3548;DHT22;1788;49.400;11.092;2023-06-26T00:46:06;21.00;51.60
3548;DHT22;1788;49.400;11.092;2023-06-26T00:48:33;21.00;51.70
3548;DHT22;1788;49.400;11.092;2023-06-26T00:50:59;21.00;51.70
3548;DHT22;1788;49.400;11.092;2023-06-26T00:53:27;20.90;51.70
3548;DHT22;1788;49.400;11.092;2023-06-26T00:55:54;20.90;51.70
3548;DHT22;1788;49.400;11.092;2023-06-26T00:58:21;20.90;51.90
3548;DHT22;1788;49.400;11.092;2023-06-26T01:00:48;20.90;51.80
3548;DHT22;1788;49.400;11.092;2023-06-26T01:03:15;20.80;51.80
3548;DHT22;1788;49.400;11.092;2023-06-26T01:05:42;20.80;51.80
3548;DHT22;1788;49.400;11.092;2023-06-26T01:08:08;20.80;51.90
3548;DHT22;1788;49.400;11.092;2023-06-26T01:10:35;20.80;51.90
3548;DHT22;1788;49.400;11.092;2023-06-26T01:13:02;20.80;51.90
3548;DHT22;1788;49.400;11.092;2023-06-26T01:15:28;20.80;51.90
3548;DHT22;1788;49.400;11.092;2023-06-26T01:17:56;20.70;51.90
3548;DHT22;1788;49.400;11.092;2023-06-26T01:20:22;20.70;51.90
3548;DHT22;1788;49.400;11.092;2023-06-26T01:27:45;20.60;52.00
3548;DHT22;1788;49.400;11.092;2023-06-26T01:30:10;20.60;52.00
3548;DHT22;1788;49.400;11.092;2023-06-26T01:32:38;20.60;52.20
3548;DHT22;1788;49.400;11.092;2023-06-26T01:35:05;20.50;52.10
3548;DHT22;1788;49.400;11.092;2023-06-26T01:37:32;20.60;52.20
3548;DHT22;1788;49.400;11.092;2023-06-26T01:39:58;20.50;52.20
3548;DHT22;1788;49.400;11.092;2023-06-26T01:42:26;20.50;52.90
3548;DHT22;1788;49.400;11.092;2023-06-26T01:44:52;20.50;52.20
3548;DHT22;1788;49.400;11.092;2023-06-26T01:47:20;20.50;52.20
3548;DHT22;1788;49.400;11.092;2023-06-26T01:49:49;20.50;52.30
3548;DHT22;1788;49.400;11.092;2023-06-26T01:54:40;20.40;52.30
3548;DHT22;1788;49.400;11.092;2023-06-26T01:57:05;20.40;52.30
3548;DHT22;1788;49.400;11.092;2023-06-26T01:59:32;20.40;52.40
3548;DHT22;1788;49.400;11.092;2023-06-26T02:02:00;20.40;52.40
3548;DHT22;1788;49.400;11.092;2023-06-26T02:04:26;20.30;52.50
3548;DHT22;1788;49.400;11.092;2023-06-26T02:06:52;20.20;52.40
3548;DHT22;1788;49.400;11.092;2023-06-26T02:09:20;20.20;52.50
3548;DHT22;1788;49.400;11.092;2023-06-26T02:11:46;20.20;52.50
3548;DHT22;1788;49.400;11.092;2023-06-26T02:14:14;20.20;52.50
3548;DHT22;1788;49.400;11.092;2023-06-26T02:16:40;20.20;52.50
3548;DHT22;1788;49.400;11.092;2023-06-26T02:19:08;20.10;52.50
3548;DHT22;1788;49.400;11.092;2023-06-26T02:21:34;20.10;52.50
3548;DHT22;1788;49.400;11.092;2023-06-26T02:24:02;20.10;52.60
3548;DHT22;1788;49.400;11.092;2023-06-26T02:26:28;20.10;52.60
3548;DHT22;1788;49.400;11.092;2023-06-26T02:28:56;20.00;52.60
3548;DHT22;1788;49.400;11.092;2023-06-26T02:31:22;20.00;52.60
3548;DHT22;1788;49.400;11.092;2023-06-26T02:33:50;20.00;52.20
3548;DHT22;1788;49.400;11.092;2023-06-26T02:36:16;19.90;52.60
3548;DHT22;1788;49.400;11.092;2023-06-26T02:38:43;19.90;52.60
3548;DHT22;1788;49.400;11.092;2023-06-26T02:41:10;19.90;52.70
3548;DHT22;1788;49.400;11.092;2023-06-26T02:43:36;19.90;52.70
3548;DHT22;1788;49.400;11.092;2023-06-26T02:46:04;19.80;52.70
3548;DHT22;1788;49.400;11.092;2023-06-26T02:48:30;19.80;52.70
3548;DHT22;1788;49.400;11.092;2023-06-26T02:50:58;19.80;52.90
3548;DHT22;1788;49.400;11.092;2023-06-26T02:53:24;19.80;52.90
3548;DHT22;1788;49.400;11.092;2023-06-26T02:55:52;19.80;53.00
3548;DHT22;1788;49.400;11.092;2023-06-26T02:58:18;19.70;52.90
3548;DHT22;1788;49.400;11.092;2023-06-26T03:00:46;19.70;53.00
3548;DHT22;1788;49.400;11.092;2023-06-26T03:03:12;19.60;52.90
3548;DHT22;1788;49.400;11.092;2023-06-26T03:05:40;19.70;53.10
3548;DHT22;1788;49.400;11.092;2023-06-26T03:08:06;19.60;53.00
3548;DHT22;1788;49.400;11.092;2023-06-26T03:10:34;19.60;53.50
3548;DHT22;1788;49.400;11.092;2023-06-26T03:13:00;19.60;53.20
3548;DHT22;1788;49.400;11.092;2023-06-26T03:15:27;19.60;53.20
3548;DHT22;1788;49.400;11.092;2023-06-26T03:17:53;19.60;53.30
3548;DHT22;1788;49.400;11.092;2023-06-26T03:20:20;19.50;53.30
3548;DHT22;1788;49.400;11.092;2023-06-26T03:22:47;19.50;53.40
3548;DHT22;1788;49.400;11.092;2023-06-26T03:25:14;19.40;53.30
3548;DHT22;1788;49.400;11.092;2023-06-26T03:27:41;19.40;53.40
3548;DHT22;1788;49.400;11.092;2023-06-26T03:30:08;19.40;53.40
3548;DHT22;1788;49.400;11.092;2023-06-26T03:32:36;19.40;53.10
3548;DHT22;1788;49.400;11.092;2023-06-26T03:35:03;19.30;53.50
3548;DHT22;1788;49.400;11.092;2023-06-26T03:37:29;19.40;53.60
3548;DHT22;1788;49.400;11.092;2023-06-26T03:39:57;19.40;53.80
3548;DHT22;1788;49.400;11.092;2023-06-26T03:42:23;19.30;53.70
3548;DHT22;1788;49.400;11.092;2023-06-26T03:44:50;19.30;53.70
3548;DHT22;1788;49.400;11.092;2023-06-26T03:47:17;19.30;53.80
3548;DHT22;1788;49.400;11.092;2023-06-26T03:49:43;19.30;53.80
3548;DHT22;1788;49.400;11.092;2023-06-26T03:52:10;19.30;53.90
3548;DHT22;1788;49.400;11.092;2023-06-26T03:54:37;19.30;54.00
3548;DHT22;1788;49.400;11.092;2023-06-26T03:57:04;19.30;54.00
3548;DHT22;1788;49.400;11.092;2023-06-26T03:59:31;19.30;54.00
3548;DHT22;1788;49.400;11.092;2023-06-26T04:01:58;19.30;54.10
3548;DHT22;1788;49.400;11.092;2023-06-26T04:04:25;19.30;54.10
3548;DHT22;1788;49.400;11.092;2023-06-26T04:06:52;19.40;54.30
3548;DHT22;1788;49.400;11.092;2023-06-26T04:09:19;19.30;54.20
3548;DHT22;1788;49.400;11.092;2023-06-26T04:11:46;19.40;54.40
3548;DHT22;1788;49.400;11.092;2023-06-26T04:14:13;19.30;54.30
3548;DHT22;1788;49.400;11.092;2023-06-26T04:16:40;19.40;54.50
3548;DHT22;1788;49.400;11.092;2023-06-26T04:19:07;19.40;54.50
3548;DHT22;1788;49.400;11.092;2023-06-26T04:21:34;19.40;55.10
3548;DHT22;1788;49.400;11.092;2023-06-26T04:24:01;19.40;54.60
3548;DHT22;1788;49.400;11.092;2023-06-26T04:26:27;19.40;54.60
3548;DHT22;1788;49.400;11.092;2023-06-26T04:28:54;19.50;54.70
3548;DHT22;1788;49.400;11.092;2023-06-26T04:31:21;19.50;54.80
3548;DHT22;1788;49.400;11.092;2023-06-26T04:33:47;19.60;54.90
3548;DHT22;1788;49.400;11.092;2023-06-26T04:36:14;19.60;54.90
3548;DHT22;1788;49.400;11.092;2023-06-26T04:38:40;19.70;55.00
3548;DHT22;1788;49.400;11.092;2023-06-26T04:41:07;19.70;54.90
3548;DHT22;1788;49.400;11.092;2023-06-26T04:43:34;19.80;55.00
3548;DHT22;1788;49.400;11.092;2023-06-26T04:48:28;19.90;55.00
3548;DHT22;1788;49.400;11.092;2023-06-26T04:50:54;20.10;55.00
3548;DHT22;1788;49.400;11.092;2023-06-26T04:55:47;20.40;54.80
3548;DHT22;1788;49.400;11.092;2023-06-26T04:58:14;20.50;54.60
3548;DHT22;1788;49.400;11.092;2023-06-26T05:00:41;20.70;55.10
3548;DHT22;1788;49.400;11.092;2023-06-26T05:03:08;20.80;54.30
3548;DHT22;1788;49.400;11.092;2023-06-26T05:05:34;20.90;54.10
3548;DHT22;1788;49.400;11.092;2023-06-26T05:08:06;21.00;53.90
3548;DHT22;1788;49.400;11.092;2023-06-26T05:10:28;21.20;53.90
3548;DHT22;1788;49.400;11.092;2023-06-26T05:12:54;21.20;53.70
3548;DHT22;1788;49.400;11.092;2023-06-26T05:15:22;21.40;53.40
3548;DHT22;1788;49.400;11.092;2023-06-26T05:17:48;21.40;53.30
3548;DHT22;1788;49.400;11.092;2023-06-26T05:20:17;21.50;53.20
3548;DHT22;1788;49.400;11.092;2023-06-26T05:22:43;21.70;53.20
3548;DHT22;1788;49.400;11.092;2023-06-26T05:25:11;21.90;53.10
3548;DHT22;1788;49.400;11.092;2023-06-26T05:27:39;21.80;52.60
3548;DHT22;1788;49.400;11.092;2023-06-26T05:30:05;21.90;52.40
3548;DHT22;1788;49.400;11.092;2023-06-26T05:32:33;22.00;52.20
3548;DHT22;1788;49.400;11.092;2023-06-26T05:34:58;22.10;52.00
3548;DHT22;1788;49.400;11.092;2023-06-26T05:37:26;22.30;51.80
3548;DHT22;1788;49.400;11.092;2023-06-26T05:39:53;22.20;51.70
3548;DHT22;1788;49.400;11.092;2023-06-26T05:42:20;22.40;51.30
3548;DHT22;1788;49.400;11.092;2023-06-26T05:44:46;22.40;51.30
3548;DHT22;1788;49.400;11.092;2023-06-26T05:47:14;22.60;51.00
3548;DHT22;1788;49.400;11.092;2023-06-26T05:49:40;22.60;50.90
3548;DHT22;1788;49.400;11.092;2023-06-26T05:52:07;22.70;50.80
3548;DHT22;1788;49.400;11.092;2023-06-26T05:54:34;22.80;50.60
3548;DHT22;1788;49.400;11.092;2023-06-26T05:57:00;22.90;50.40
3548;DHT22;1788;49.400;11.092;2023-06-26T05:59:28;23.10;50.10
3548;DHT22;1788;49.400;11.092;2023-06-26T06:01:54;23.10;50.10
3548;DHT22;1788;49.400;11.092;2023-06-26T06:04:22;23.30;49.80
3548;DHT22;1788;49.400;11.092;2023-06-26T06:06:48;23.30;49.80
3548;DHT22;1788;49.400;11.092;2023-06-26T06:09:16;23.50;50.00
3548;DHT22;1788;49.400;11.092;2023-06-26T06:11:42;23.50;49.40
3548;DHT22;1788;49.400;11.092;2023-06-26T06:14:10;23.70;49.70
3548;DHT22;1788;49.400;11.092;2023-06-26T06:16:36;23.70;49.10
3548;DHT22;1788;49.400;11.092;2023-06-26T06:19:04;23.80;48.90
3548;DHT22;1788;49.400;11.092;2023-06-26T06:21:30;23.90;48.70
3548;DHT22;1788;49.400;11.092;2023-06-26T06:23:57;24.00;48.60
3548;DHT22;1788;49.400;11.092;2023-06-26T06:26:23;24.20;48.50
3548;DHT22;1788;49.400;11.092;2023-06-26T06:28:50;24.30;48.30
3548;DHT22;1788;49.400;11.092;2023-06-26T06:31:17;24.50;48.10
3548;DHT22;1788;49.400;11.092;2023-06-26T06:33:44;24.40;48.00
3548;DHT22;1788;49.400;11.092;2023-06-26T06:36:11;24.60;47.70
3548;DHT22;1788;49.400;11.092;2023-06-26T06:38:38;24.60;47.70
3548;DHT22;1788;49.400;11.092;2023-06-26T06:41:05;24.80;47.50
3548;DHT22;1788;49.400;11.092;2023-06-26T06:43:32;24.80;47.40
3548;DHT22;1788;49.400;11.092;2023-06-26T06:45:59;24.90;47.30
3548;DHT22;1788;49.400;11.092;2023-06-26T06:48:25;25.00;47.20
3548;DHT22;1788;49.400;11.092;2023-06-26T06:50:52;25.20;47.10
3548;DHT22;1788;49.400;11.092;2023-06-26T06:53:19;25.40;46.80
3548;DHT22;1788;49.400;11.092;2023-06-26T06:55:46;25.30;46.70
3548;DHT22;1788;49.400;11.092;2023-06-26T06:58:13;25.60;46.50
3548;DHT22;1788;49.400;11.092;2023-06-26T07:00:40;25.60;46.50
3548;DHT22;1788;49.400;11.092;2023-06-26T07:03:07;25.90;46.10
3548;DHT22;1788;49.400;11.092;2023-06-26T07:05:34;25.80;46.00
3548;DHT22;1788;49.400;11.092;2023-06-26T07:08:01;26.10;45.70
3548;DHT22;1788;49.400;11.092;2023-06-26T07:10:28;26.10;45.60
3548;DHT22;1788;49.400;11.092;2023-06-26T07:12:54;26.20;45.30
3548;DHT22;1788;49.400;11.092;2023-06-26T07:15:21;26.40;45.20
3548;DHT22;1788;49.400;11.092;2023-06-26T07:17:48;26.50;45.00
3548;DHT22;1788;49.400;11.092;2023-06-26T07:20:15;26.80;44.50
3548;DHT22;1788;49.400;11.092;2023-06-26T07:22:42;26.80;44.50
3548;DHT22;1788;49.400;11.092;2023-06-26T07:25:09;26.90;44.10
3548;DHT22;1788;49.400;11.092;2023-06-26T07:27:36;27.00;43.80
3548;DHT22;1788;49.400;11.092;2023-06-26T07:30:02;27.20;43.50
3548;DHT22;1788;49.400;11.092;2023-06-26T07:32:29;27.30;43.10
3548;DHT22;1788;49.400;11.092;2023-06-26T07:34:55;27.40;42.80
3548;DHT22;1788;49.400;11.092;2023-06-26T07:37:22;27.40;42.50
3548;DHT22;1788;49.400;11.092;2023-06-26T07:39:49;27.50;42.30
3548;DHT22;1788;49.400;11.092;2023-06-26T07:42:15;27.60;42.20
3548;DHT22;1788;49.400;11.092;2023-06-26T07:44:42;27.90;42.00
3548;DHT22;1788;49.400;11.092;2023-06-26T07:47:09;27.80;41.90
3548;DHT22;1788;49.400;11.092;2023-06-26T07:49:36;28.00;41.70
3548;DHT22;1788;49.400;11.092;2023-06-26T07:52:03;28.10;41.30
3548;DHT22;1788;49.400;11.092;2023-06-26T07:54:29;28.20;41.10
3548;DHT22;1788;49.400;11.092;2023-06-26T07:56:57;28.50;41.10
3548;DHT22;1788;49.400;11.092;2023-06-26T07:59:24;28.50;41.10
3548;DHT22;1788;49.400;11.092;2023-06-26T08:01:52;28.80;40.70
3548;DHT22;1788;49.400;11.092;2023-06-26T08:04:18;28.70;40.60
3548;DHT22;1788;49.400;11.092;2023-06-26T08:06:44;28.90;40.40
3548;DHT22;1788;49.400;11.092;2023-06-26T08:09:11;28.90;40.20
3548;DHT22;1788;49.400;11.092;2023-06-26T08:11:38;29.00;40.10
3548;DHT22;1788;49.400;11.092;2023-06-26T08:14:04;29.10;39.90
3548;DHT22;1788;49.400;11.092;2023-06-26T08:16:31;29.20;39.70
3548;DHT22;1788;49.400;11.092;2023-06-26T08:18:57;29.30;39.40
3548;DHT22;1788;49.400;11.092;2023-06-26T08:21:24;29.40;39.30
3548;DHT22;1788;49.400;11.092;2023-06-26T08:23:51;29.60;39.20
3548;DHT22;1788;49.400;11.092;2023-06-26T08:26:18;29.50;39.00
3548;DHT22;1788;49.400;11.092;2023-06-26T08:28:45;29.80;38.60
3548;DHT22;1788;49.400;11.092;2023-06-26T08:31:13;29.80;38.60
3548;DHT22;1788;49.400;11.092;2023-06-26T08:33:39;29.90;38.30
3548;DHT22;1788;49.400;11.092;2023-06-26T08:36:07;30.10;38.00
3548;DHT22;1788;49.400;11.092;2023-06-26T08:38:34;30.10;37.90
3548;DHT22;1788;49.400;11.092;2023-06-26T08:41:01;30.20;37.80
3548;DHT22;1788;49.400;11.092;2023-06-26T08:43:28;30.40;37.50
3548;DHT22;1788;49.400;11.092;2023-06-26T08:45:55;30.40;37.40
3548;DHT22;1788;49.400;11.092;2023-06-26T08:48:21;30.50;37.20
3548;DHT22;1788;49.400;11.092;2023-06-26T08:50:48;30.60;37.10
3548;DHT22;1788;49.400;11.092;2023-06-26T08:55:41;30.80;36.90
3548;DHT22;1788;49.400;11.092;2023-06-26T08:58:08;30.90;36.70
3548;DHT22;1788;49.400;11.092;2023-06-26T09:00:34;31.00;36.40
3548;DHT22;1788;49.400;11.092;2023-06-26T09:03:01;31.00;36.20
3548;DHT22;1788;49.400;11.092;2023-06-26T09:05:28;31.20;35.70
3548;DHT22;1788;49.400;11.092;2023-06-26T09:07:55;31.10;35.60
3548;DHT22;1788;49.400;11.092;2023-06-26T09:10:21;31.20;35.40
3548;DHT22;1788;49.400;11.092;2023-06-26T09:12:48;31.30;35.30
3548;DHT22;1788;49.400;11.092;2023-06-26T09:15:15;31.40;35.20
3548;DHT22;1788;49.400;11.092;2023-06-26T09:17:42;31.50;35.00
3548;DHT22;1788;49.400;11.092;2023-06-26T09:20:09;31.70;34.60
3548;DHT22;1788;49.400;11.092;2023-06-26T09:22:36;31.70;34.60
3548;DHT22;1788;49.400;11.092;2023-06-26T09:25:04;31.90;34.50
3548;DHT22;1788;49.400;11.092;2023-06-26T09:27:30;31.80;34.30
3548;DHT22;1788;49.400;11.092;2023-06-26T09:32:24;31.90;34.00
3548;DHT22;1788;49.400;11.092;2023-06-26T09:34:51;32.00;33.40
3548;DHT22;1788;49.400;11.092;2023-06-26T09:37:16;32.10;33.10
3548;DHT22;1788;49.400;11.092;2023-06-26T09:39:44;32.20;32.70
3548;DHT22;1788;49.400;11.092;2023-06-26T09:42:10;32.20;32.70
3548;DHT22;1788;49.400;11.092;2023-06-26T09:44:42;32.40;32.50
3548;DHT22;1788;49.400;11.092;2023-06-26T09:47:04;32.40;32.50
3548;DHT22;1788;49.400;11.092;2023-06-26T09:49:31;32.70;31.90
3548;DHT22;1788;49.400;11.092;2023-06-26T09:51:59;32.60;31.90
3548;DHT22;1788;49.400;11.092;2023-06-26T09:54:25;32.70;31.90
3548;DHT22;1788;49.400;11.092;2023-06-26T09:56:51;32.70;31.50
3548;DHT22;1788;49.400;11.092;2023-06-26T09:59:18;32.70;31.50
3548;DHT22;1788;49.400;11.092;2023-06-26T10:01:46;32.70;31.20
3548;DHT22;1788;49.400;11.092;2023-06-26T10:04:12;32.70;31.20
3548;DHT22;1788;49.400;11.092;2023-06-26T10:06:41;32.80;31.10
3548;DHT22;1788;49.400;11.092;2023-06-26T10:09:06;32.80;31.10
3548;DHT22;1788;49.400;11.092;2023-06-26T10:11:36;32.90;31.00
3548;DHT22;1788;49.400;11.092;2023-06-26T10:14:01;33.00;30.60
3548;DHT22;1788;49.400;11.092;2023-06-26T10:16:27;32.90;30.30
3548;DHT22;1788;49.400;11.092;2023-06-26T10:19:02;33.00;30.20
3548;DHT22;1788;49.400;11.092;2023-06-26T10:21:20;33.00;30.10
3548;DHT22;1788;49.400;11.092;2023-06-26T10:23:47;33.20;30.30
3548;DHT22;1788;49.400;11.092;2023-06-26T10:26:14;33.30;30.00
3548;DHT22;1788;49.400;11.092;2023-06-26T10:28:41;33.30;30.00
3548;DHT22;1788;49.400;11.092;2023-06-26T10:31:08;33.40;30.00
3548;DHT22;1788;49.400;11.092;2023-06-26T10:33:34;33.50;30.00
3548;DHT22;1788;49.400;11.092;2023-06-26T10:38:47;33.70;29.70
3548;DHT22;1788;49.400;11.092;2023-06-26T10:40:55;33.70;29.60
3548;DHT22;1788;49.400;11.092;2023-06-26T10:43:29;33.80;29.50
3548;DHT22;1788;49.400;11.092;2023-06-26T10:45:49;33.90;29.50
3548;DHT22;1788;49.400;11.092;2023-06-26T10:48:16;34.00;29.30
3548;DHT22;1788;49.400;11.092;2023-06-26T10:50:42;34.00;29.30
3548;DHT22;1788;49.400;11.092;2023-06-26T10:53:11;33.80;29.20
3548;DHT22;1788;49.400;11.092;2023-06-26T10:55:37;33.80;29.20
3548;DHT22;1788;49.400;11.092;2023-06-26T10:58:04;33.80;29.30
3548;DHT22;1788;49.400;11.092;2023-06-26T11:00:30;33.80;29.30
3548;DHT22;1788;49.400;11.092;2023-06-26T11:02:57;33.80;29.10
3548;DHT22;1788;49.400;11.092;2023-06-26T11:05:24;33.90;29.00
3548;DHT22;1788;49.400;11.092;2023-06-26T11:10:17;34.00;28.50
3548;DHT22;1788;49.400;11.092;2023-06-26T11:12:44;34.10;28.40
3548;DHT22;1788;49.400;11.092;2023-06-26T11:15:11;34.20;28.30
3548;DHT22;1788;49.400;11.092;2023-06-26T11:17:37;34.20;28.10
3548;DHT22;1788;49.400;11.092;2023-06-26T11:20:06;34.30;28.00
3548;DHT22;1788;49.400;11.092;2023-06-26T11:22:30;34.30;27.80
3548;DHT22;1788;49.400;11.092;2023-06-26T11:24:59;34.10;27.90
3548;DHT22;1788;49.400;11.092;2023-06-26T11:27:24;34.10;27.50
3548;DHT22;1788;49.400;11.092;2023-06-26T11:29:51;34.00;27.50
3548;DHT22;1788;49.400;11.092;2023-06-26T11:32:17;34.00;27.60
3548;DHT22;1788;49.400;11.092;2023-06-26T11:34:44;34.10;27.70
3548;DHT22;1788;49.400;11.092;2023-06-26T11:37:10;34.20;27.60
3548;DHT22;1788;49.400;11.092;2023-06-26T11:39:37;34.40;27.50
3548;DHT22;1788;49.400;11.092;2023-06-26T11:42:04;34.50;27.40
3548;DHT22;1788;49.400;11.092;2023-06-26T11:44:31;34.80;27.20
3548;DHT22;1788;49.400;11.092;2023-06-26T11:46:58;34.80;27.20
3548;DHT22;1788;49.400;11.092;2023-06-26T11:49:24;34.90;27.00
3548;DHT22;1788;49.400;11.092;2023-06-26T11:51:52;35.00;26.90
3548;DHT22;1788;49.400;11.092;2023-06-26T11:56:51;35.00;26.80
3548;DHT22;1788;49.400;11.092;2023-06-26T11:59:12;35.10;26.90
3548;DHT22;1788;49.400;11.092;2023-06-26T12:04:06;35.30;26.80
3548;DHT22;1788;49.400;11.092;2023-06-26T12:06:33;35.50;26.80
3548;DHT22;1788;49.400;11.092;2023-06-26T12:08:58;35.60;26.60
3548;DHT22;1788;49.400;11.092;2023-06-26T12:11:25;35.70;26.60
3548;DHT22;1788;49.400;11.092;2023-06-26T12:13:51;36.00;26.60
3548;DHT22;1788;49.400;11.092;2023-06-26T12:16:18;36.00;26.40
3548;DHT22;1788;49.400;11.092;2023-06-26T12:18:45;36.10;26.40
3548;DHT22;1788;49.400;11.092;2023-06-26T12:23:39;36.20;26.20
3548;DHT22;1788;49.400;11.092;2023-06-26T12:28:35;36.40;26.10
3548;DHT22;1788;49.400;11.092;2023-06-26T12:33:25;36.40;26.00
3548;DHT22;1788;49.400;11.092;2023-06-26T12:35:52;36.40;26.00
3548;DHT22;1788;49.400;11.092;2023-06-26T12:38:19;36.40;25.90
3548;DHT22;1788;49.400;11.092;2023-06-26T12:40:45;36.30;25.90
3548;DHT22;1788;49.400;11.092;2023-06-26T12:43:22;36.20;26.00
3548;DHT22;1788;49.400;11.092;2023-06-26T12:45:38;36.20;25.90
3548;DHT22;1788;49.400;11.092;2023-06-26T12:50:36;36.30;25.70
3548;DHT22;1788;49.400;11.092;2023-06-26T12:52:58;36.30;25.60
3548;DHT22;1788;49.400;11.092;2023-06-26T12:55:25;36.30;25.60
3548;DHT22;1788;49.400;11.092;2023-06-26T12:57:52;36.30;25.60
3548;DHT22;1788;49.400;11.092;2023-06-26T13:00:18;36.20;25.60
3548;DHT22;1788;49.400;11.092;2023-06-26T13:02:45;36.10;25.60
3548;DHT22;1788;49.400;11.092;2023-06-26T13:05:12;35.80;25.50
3548;DHT22;1788;49.400;11.092;2023-06-26T13:07:39;35.60;25.50
3548;DHT22;1788;49.400;11.092;2023-06-26T13:10:06;35.40;25.70
3548;DHT22;1788;49.400;11.092;2023-06-26T13:12:32;35.40;26.00
3548;DHT22;1788;49.400;11.092;2023-06-26T13:15:00;35.50;26.10
3548;DHT22;1788;49.400;11.092;2023-06-26T13:17:27;35.50;26.20
3548;DHT22;1788;49.400;11.092;2023-06-26T13:19:54;35.50;26.20
3548;DHT22;1788;49.400;11.092;2023-06-26T13:22:20;35.50;26.30
3548;DHT22;1788;49.400;11.092;2023-06-26T13:24:48;35.50;26.30
3548;DHT22;1788;49.400;11.092;2023-06-26T13:27:14;35.40;26.40
3548;DHT22;1788;49.400;11.092;2023-06-26T13:29:40;35.10;26.50
3548;DHT22;1788;49.400;11.092;2023-06-26T13:32:08;34.70;27.10
3548;DHT22;1788;49.400;11.092;2023-06-26T13:34:34;34.60;27.00
3548;DHT22;1788;49.400;11.092;2023-06-26T13:37:01;34.50;27.40
3548;DHT22;1788;49.400;11.092;2023-06-26T13:39:28;34.20;28.20
3548;DHT22;1788;49.400;11.092;2023-06-26T13:41:55;34.20;27.80
3548;DHT22;1788;49.400;11.092;2023-06-26T13:44:21;34.10;27.90
3548;DHT22;1788;49.400;11.092;2023-06-26T13:46:48;34.00;28.00
3548;DHT22;1788;49.400;11.092;2023-06-26T13:49:15;33.90;28.10
3548;DHT22;1788;49.400;11.092;2023-06-26T13:51:41;33.80;28.30
3548;DHT22;1788;49.400;11.092;2023-06-26T13:54:08;33.80;28.50
3548;DHT22;1788;49.400;11.092;2023-06-26T13:56:35;33.80;28.70
3548;DHT22;1788;49.400;11.092;2023-06-26T13:59:01;33.90;28.80
3548;DHT22;1788;49.400;11.092;2023-06-26T14:01:28;33.90;28.90
3548;DHT22;1788;49.400;11.092;2023-06-26T14:03:55;34.00;29.20
3548;DHT22;1788;49.400;11.092;2023-06-26T14:06:22;34.00;29.20
3548;DHT22;1788;49.400;11.092;2023-06-26T14:08:48;34.00;29.20
3548;DHT22;1788;49.400;11.092;2023-06-26T14:11:15;34.10;29.30
3548;DHT22;1788;49.400;11.092;2023-06-26T14:13:42;34.00;29.30
3548;DHT22;1788;49.400;11.092;2023-06-26T14:16:08;34.00;29.40
3548;DHT22;1788;49.400;11.092;2023-06-26T14:18:35;34.00;29.50
3548;DHT22;1788;49.400;11.092;2023-06-26T14:21:02;33.90;29.70
3548;DHT22;1788;49.400;11.092;2023-06-26T14:23:28;34.00;29.80
3548;DHT22;1788;49.400;11.092;2023-06-26T14:25:55;34.10;29.90
3548;DHT22;1788;49.400;11.092;2023-06-26T14:28:22;34.20;29.80
3548;DHT22;1788;49.400;11.092;2023-06-26T14:30:48;34.30;29.60
3548;DHT22;1788;49.400;11.092;2023-06-26T14:33:15;34.30;29.50
3548;DHT22;1788;49.400;11.092;2023-06-26T14:35:42;34.30;29.40
3548;DHT22;1788;49.400;11.092;2023-06-26T14:38:08;34.30;29.40
3548;DHT22;1788;49.400;11.092;2023-06-26T14:40:35;34.20;29.40
3548;DHT22;1788;49.400;11.092;2023-06-26T14:43:01;34.30;29.50
3548;DHT22;1788;49.400;11.092;2023-06-26T14:45:29;34.40;29.50
3548;DHT22;1788;49.400;11.092;2023-06-26T14:47:55;34.40;29.50
3548;DHT22;1788;49.400;11.092;2023-06-26T14:50:22;34.40;29.50
3548;DHT22;1788;49.400;11.092;2023-06-26T14:52:49;34.40;29.60
3548;DHT22;1788;49.400;11.092;2023-06-26T14:55:15;34.30;29.60
3548;DHT22;1788;49.400;11.092;2023-06-26T14:57:42;34.30;29.80
3548;DHT22;1788;49.400;11.092;2023-06-26T15:00:09;34.30;29.90
3548;DHT22;1788;49.400;11.092;2023-06-26T15:02:36;34.10;30.00
3548;DHT22;1788;49.400;11.092;2023-06-26T15:05:03;34.10;30.00
3548;DHT22;1788;49.400;11.092;2023-06-26T15:07:30;34.00;30.20
3548;DHT22;1788;49.400;11.092;2023-06-26T15:09:57;34.00;30.20
3548;DHT22;1788;49.400;11.092;2023-06-26T15:12:24;33.90;30.30
3548;DHT22;1788;49.400;11.092;2023-06-26T15:14:51;33.80;30.50
3548;DHT22;1788;49.400;11.092;2023-06-26T15:17:18;33.80;30.90
3548;DHT22;1788;49.400;11.092;2023-06-26T15:19:45;33.70;30.90
3548;DHT22;1788;49.400;11.092;2023-06-26T15:22:11;33.80;31.10
3548;DHT22;1788;49.400;11.092;2023-06-26T15:24:38;33.70;31.20
3548;DHT22;1788;49.400;11.092;2023-06-26T15:27:05;33.60;31.90
3548;DHT22;1788;49.400;11.092;2023-06-26T15:29:32;33.60;31.60
3548;DHT22;1788;49.400;11.092;2023-06-26T15:31:59;33.30;32.30
3548;DHT22;1788;49.400;11.092;2023-06-26T15:34:26;33.30;32.30
3548;DHT22;1788;49.400;11.092;2023-06-26T15:36:52;33.30;32.60
3548;DHT22;1788;49.400;11.092;2023-06-26T15:39:19;33.20;32.80
3548;DHT22;1788;49.400;11.092;2023-06-26T15:41:46;33.10;33.00
3548;DHT22;1788;49.400;11.092;2023-06-26T15:44:12;33.10;33.30
3548;DHT22;1788;49.400;11.092;2023-06-26T15:46:39;33.10;33.60
3548;DHT22;1788;49.400;11.092;2023-06-26T15:49:06;33.00;33.80
3548;DHT22;1788;49.400;11.092;2023-06-26T15:51:32;33.10;34.10
3548;DHT22;1788;49.400;11.092;2023-06-26T15:53:59;33.00;34.10
3548;DHT22;1788;49.400;11.092;2023-06-26T15:56:25;33.10;34.20
3548;DHT22;1788;49.400;11.092;2023-06-26T15:58:52;33.10;34.30
3548;DHT22;1788;49.400;11.092;2023-06-26T16:01:19;33.00;34.40
3548;DHT22;1788;49.400;11.092;2023-06-26T16:03:45;32.90;34.60
3548;DHT22;1788;49.400;11.092;2023-06-26T16:06:12;32.80;34.70
3548;DHT22;1788;49.400;11.092;2023-06-26T16:08:39;32.60;35.10
3548;DHT22;1788;49.400;11.092;2023-06-26T16:11:06;32.60;35.00
3548;DHT22;1788;49.400;11.092;2023-06-26T16:13:33;32.50;35.30
3548;DHT22;1788;49.400;11.092;2023-06-26T16:16:00;32.50;35.30
3548;DHT22;1788;49.400;11.092;2023-06-26T16:18:27;32.40;35.70